Time;durP1;ratioP1;P1;durP2;ratioP2;P2;SDS_P1;SDS_P2;PMS_P1;PMS_P2;Temp;Humidity;BMP_temperature;BMP_pressure;BME280_temperature;BME280_humidity;BME280_pressure;Samples;Min_cycle;Max_cycle;Signal;HPM_P1;HPM_P2
2023/01/29 00:02:21;;;;;;;23.00;13.10;;;;;;;-1.71;65.61;100828.67;108151;1256;72826;-76
2023/01/29 00:04:48;;;;;;;23.70;12.80;;;;;;;-1.72;65.76;100828.09;108140;1257;72703;-76
2023/01/29 00:07:15;;;;;;;22.80;12.80;;;;;;;-1.72;65.72;100827.56;108167;1256;60317;-75
2023/01/29 00:09:43;;;;;;;23.20;13.00;;;;;;;-1.72;65.66;100826.19;108153;1257;59418;-76
2023/01/29 00:12:10;;;;;;;22.80;12.50;;;;;;;-1.71;65.80;100832.17;108036;1257;72134;-76
2023/01/29 00:14:37;;;;;;;21.70;12.80;;;;;;;-1.74;65.82;100832.42;108055;1257;72230;-76
2023/01/29 00:17:04;;;;;;;21.50;12.60;;;;;;;-1.75;65.97;100835.33;108048;1256;72908;-75
2023/01/29 00:19:31;;;;;;;21.30;12.40;;;;;;;-1.76;65.80;100840.18;108016;1256;60455;-75
2023/01/29 00:21:58;;;;;;;22.20;11.90;;;;;;;-1.77;65.97;100845.73;108032;1256;60542;-77
2023/01/29 00:24:25;;;;;;;24.70;13.50;;;;;;;-1.79;65.84;100852.56;108037;1257;72884;-76
2023/01/29 00:26:52;;;;;;;25.50;14.30;;;;;;;-1.82;65.77;100854.73;108061;1257;70936;-76
2023/01/29 00:29:20;;;;;;;23.60;12.90;;;;;;;-1.87;65.88;100856.84;108065;1257;71512;-77
2023/01/29 00:31:48;;;;;;;28.00;13.90;;;;;;;-1.92;66.25;100858.39;108158;1257;61289;-74
2023/01/29 00:34:15;;;;;;;24.50;14.80;;;;;;;-1.95;66.30;100860.10;108143;1255;60498;-75
2023/01/29 00:36:44;;;;;;;26.70;13.40;;;;;;;-1.96;66.38;100861.82;108147;1257;73016;-75
2023/01/29 00:39:11;;;;;;;26.80;15.20;;;;;;;-1.98;66.31;100860.77;108161;1257;71714;-77
2023/01/29 00:47:33;;;;;;;29.80;16.40;;;;;;;-2.00;66.58;100862.55;108109;1257;60451;-76
2023/01/29 00:50:01;;;;;;;29.10;16.60;;;;;;;-2.01;66.55;100860.05;108120;1257;74045;-77
2023/01/29 00:52:28;;;;;;;30.00;17.20;;;;;;;-2.01;66.63;100861.77;108169;1259;73470;-75
2023/01/29 00:54:57;;;;;;;28.30;16.50;;;;;;;-2.01;66.61;100867.24;108136;1257;70915;-76
2023/01/29 00:57:25;;;;;;;26.50;14.90;;;;;;;-2.03;66.70;100864.28;108146;1254;60524;-76
2023/01/29 00:59:53;;;;;;;28.40;14.90;;;;;;;-2.03;66.91;100863.80;108149;1257;60434;-77
2023/01/29 01:05:06;;;;;;;26.20;15.00;;;;;;;-2.03;66.98;100861.86;108113;1256;72100;-76
2023/01/29 01:07:33;;;;;;;27.50;15.50;;;;;;;-2.01;67.03;100858.81;108069;1257;73302;-76
2023/01/29 01:12:52;;;;;;;30.50;16.30;;;;;;;-2.00;67.02;100861.55;108031;1257;60309;-76
2023/01/29 01:15:19;;;;;;;28.10;15.50;;;;;;;-1.99;66.95;100868.42;107947;1261;73108;-76
2023/01/29 01:17:47;;;;;;;31.00;16.30;;;;;;;-1.99;67.10;100864.21;108016;1257;71834;-75
2023/01/29 01:20:14;;;;;;;29.10;15.70;;;;;;;-1.99;67.09;100861.58;108011;1256;72666;-75
2023/01/29 01:22:42;;;;;;;29.50;15.70;;;;;;;-1.96;66.91;100860.28;107984;1256;60325;-75
2023/01/29 01:25:09;;;;;;;30.20;16.40;;;;;;;-1.95;67.00;100854.38;107987;1260;59964;-75
2023/01/29 01:27:39;;;;;;;33.30;16.20;;;;;;;-1.95;67.03;100849.82;108023;1257;72851;-75
2023/01/29 01:30:09;;;;;;;31.90;16.90;;;;;;;-1.96;66.92;100851.95;108004;1258;72960;-75
2023/01/29 01:32:37;;;;;;;29.40;16.80;;;;;;;-1.98;67.03;100856.10;107972;1259;72263;-76
2023/01/29 01:35:08;;;;;;;30.00;16.20;;;;;;;-2.01;67.04;100858.52;107941;1257;61091;-76
2023/01/29 01:37:36;;;;;;;27.90;16.40;;;;;;;-2.05;66.98;100858.90;108119;1257;60402;-76
2023/01/29 01:40:11;;;;;;;30.20;16.60;;;;;;;-2.10;66.97;100855.11;108018;1259;73310;-76
2023/01/29 01:42:41;;;;;;;28.90;16.40;;;;;;;-2.13;67.06;100859.94;108111;1256;74011;-74
2023/01/29 01:45:37;;;;;;;29.40;17.10;;;;;;;-2.16;67.04;100866.04;108528;1257;72596;-75
2023/01/29 01:48:19;;;;;;;28.70;15.60;;;;;;;-2.17;67.07;100862.48;108242;1255;60383;-75
2023/01/29 01:50:55;;;;;;;27.50;15.20;;;;;;;-2.16;67.14;100861.36;108461;1258;60316;-76
2023/01/29 01:53:57;;;;;;;31.90;16.30;;;;;;;-2.15;67.36;100861.91;108568;1257;75025;-75
2023/01/29 01:56:27;;;;;;;28.40;16.70;;;;;;;-2.14;67.24;100860.41;108449;1257;70838;-76
2023/01/29 01:58:55;;;;;;;31.40;15.90;;;;;;;-2.14;67.30;100863.34;108078;1258;74108;-76
2023/01/29 02:01:26;;;;;;;29.30;16.80;;;;;;;-2.14;67.33;100866.98;108117;1257;61320;-76
2023/01/29 02:09:48;;;;;;;32.80;17.90;;;;;;;-2.18;67.28;100866.14;108083;1259;71065;-75
2023/01/29 02:12:15;;;;;;;32.90;17.00;;;;;;;-2.19;67.32;100865.48;108024;1256;70933;-75
2023/01/29 02:14:42;;;;;;;31.80;17.10;;;;;;;-2.19;67.30;100867.61;108096;1254;62119;-75
2023/01/29 02:17:11;;;;;;;29.40;16.90;;;;;;;-2.19;67.24;100869.79;108122;1257;59061;-75
2023/01/29 02:20:06;;;;;;;30.60;16.40;;;;;;;-2.19;67.17;100870.75;108101;1260;74674;-76
2023/01/29 02:23:01;;;;;;;31.50;17.10;;;;;;;-2.20;67.16;100871.20;108032;1258;70907;-74
2023/01/29 02:25:58;;;;;;;29.00;15.30;;;;;;;-2.21;67.10;100873.23;92693;1257;10001731;-76
2023/01/29 02:28:31;;;;;;;31.50;17.20;;;;;;;-2.23;67.24;100874.48;107781;1261;74886;-75
2023/01/29 02:31:08;;;;;;;31.00;16.20;;;;;;;-2.21;67.28;100871.70;107838;1260;72865;-74
2023/01/29 02:33:59;;;;;;;29.10;16.60;;;;;;;-2.20;67.21;100873.27;107789;1255;73435;-75
2023/01/29 02:36:45;;;;;;;29.10;16.40;;;;;;;-2.17;67.11;100871.21;107848;1254;62228;-75
2023/01/29 02:39:31;;;;;;;28.80;16.10;;;;;;;-2.13;67.12;100873.71;107774;1254;60263;-75
2023/01/29 02:42:11;;;;;;;28.00;16.30;;;;;;;-2.09;67.11;100873.31;107870;1259;74872;-75
2023/01/29 02:44:42;;;;;;;31.40;17.30;;;;;;;-2.06;67.00;100877.54;107906;1260;73711;-76
2023/01/29 02:47:33;;;;;;;32.40;16.80;;;;;;;-2.04;67.06;100878.02;107825;1260;72252;-77
2023/01/29 02:50:20;;;;;;;30.80;16.80;;;;;;;-2.02;67.08;100879.69;107773;1258;60344;-77
2023/01/29 02:53:06;;;;;;;33.00;18.40;;;;;;;-1.97;67.17;100878.34;107876;1256;60153;-76
2023/01/29 02:55:41;;;;;;;34.00;18.20;;;;;;;-1.94;67.20;100879.20;107874;1254;73411;-76
2023/01/29 02:58:50;;;;;;;30.20;17.10;;;;;;;-1.91;67.21;100875.50;107873;1259;73738;-76
2023/01/29 03:01:32;;;;;;;34.90;18.20;;;;;;;-1.86;67.05;100872.35;107489;1258;72659;-77
2023/01/29 03:04:11;;;;;;;28.70;17.00;;;;;;;-1.84;67.20;100870.79;107933;1257;60568;-74
2023/01/29 03:06:44;;;;;;;31.90;18.50;;;;;;;-1.83;67.15;100871.41;107986;1254;61537;-75
2023/01/29 03:09:17;;;;;;;30.00;17.60;;;;;;;-1.83;67.03;100866.77;107973;1258;74876;-76
2023/01/29 03:11:48;;;;;;;30.70;17.70;;;;;;;-1.80;66.97;100869.17;107706;1254;71623;-74
2023/01/29 03:15:10;;;;;;;28.20;16.80;;;;;;;-1.80;66.97;100868.90;107884;1256;73535;-75
2023/01/29 03:17:21;;;;;;;30.70;17.50;;;;;;;-1.79;66.88;100867.45;107807;1255;60699;-75
2023/01/29 03:19:48;;;;;;;31.80;18.70;;;;;;;-1.77;66.86;100870.04;107790;1254;61294;-75
2023/01/29 03:22:22;;;;;;;33.30;19.30;;;;;;;-1.74;67.01;100874.18;107897;1260;74456;-74
2023/01/29 03:33:51;;;;;;;34.50;19.30;;;;;;;-1.65;66.73;100878.25;107798;1257;60435;-76
2023/01/29 03:36:44;;;;;;;31.30;18.60;;;;;;;-1.65;66.77;100873.60;107671;1257;74922;-77
2023/01/29 03:39:12;;;;;;;32.60;19.90;;;;;;;-1.64;66.93;100869.64;107859;1259;71314;-77
2023/01/29 03:41:49;;;;;;;34.60;20.80;;;;;;;-1.62;66.65;100873.16;107867;1260;72741;-76
2023/01/29 03:44:50;;;;;;;33.70;19.50;;;;;;;-1.63;66.55;100873.36;107957;1259;61597;-75
2023/01/29 03:47:39;;;;;;;38.60;21.00;;;;;;;-1.66;66.38;100873.86;107855;1259;59684;-76
2023/01/29 04:02:09;;;;;;;36.80;22.90;;;;;;;-1.72;66.67;100874.91;98411;1283;10001913;-68
2023/01/29 04:04:38;;;;;;;32.70;20.00;;;;;;;-1.33;66.15;100872.08;107661;1264;152100;-71
2023/01/29 04:07:14;;;;;;;35.30;21.60;;;;;;;-1.31;66.11;100867.04;108020;1270;70975;-71
2023/01/29 04:09:59;;;;;;;37.90;22.50;;;;;;;-1.32;66.08;100866.81;107263;1264;72782;-71
2023/01/29 04:12:46;;;;;;;36.00;21.00;;;;;;;-1.33;66.21;100868.98;107241;1269;73657;-69
2023/01/29 04:15:16;;;;;;;39.60;22.20;;;;;;;-1.30;66.22;100865.62;107359;1265;60006;-71
2023/01/29 04:17:51;;;;;;;37.90;22.50;;;;;;;-1.26;66.36;100860.45;107277;1264;60691;-69
2023/01/29 04:20:35;;;;;;;35.70;21.30;;;;;;;-1.22;66.43;100868.90;107283;1268;71404;-70
2023/01/29 04:23:05;;;;;;;38.80;21.70;;;;;;;-1.20;66.30;100864.84;107424;1267;73519;-71
2023/01/29 04:25:43;;;;;;;36.90;21.60;;;;;;;-1.14;66.57;100868.81;108537;1260;72846;-70
2023/01/29 04:28:16;;;;;;;37.70;20.80;;;;;;;-1.09;66.60;100863.35;107893;1257;59298;-71
2023/01/29 04:30:53;;;;;;;38.00;21.60;;;;;;;-1.05;66.57;100860.41;107792;1258;59537;-71
2023/01/29 04:33:56;;;;;;;34.10;19.30;;;;;;;-1.02;66.49;100856.95;107904;1262;74777;-70
2023/01/29 04:36:37;;;;;;;39.30;21.60;;;;;;;-1.02;66.42;100855.92;107779;1257;72731;-70
2023/01/29 04:39:16;;;;;;;37.70;20.50;;;;;;;-1.00;66.38;100857.91;107809;1257;72616;-71
2023/01/29 04:41:54;;;;;;;39.90;21.00;;;;;;;-0.96;66.53;100863.73;107686;1261;61099;-72
2023/01/29 04:44:30;;;;;;;36.40;21.20;;;;;;;-0.93;66.35;100871.87;107933;1256;61582;-72
2023/01/29 04:47:06;;;;;;;34.80;19.10;;;;;;;-0.92;66.43;100872.02;107747;1256;71729;-71
2023/01/29 04:50:06;;;;;;;35.70;21.10;;;;;;;-0.90;66.29;100875.09;108993;1257;72404;-71
2023/01/29 04:53:13;;;;;;;40.20;21.60;;;;;;;-0.85;66.23;100875.63;108054;1256;71769;-70
2023/01/29 04:55:51;;;;;;;36.20;21.10;;;;;;;-0.82;66.22;100874.95;108311;1257;59581;-71
2023/01/29 04:58:41;;;;;;;33.70;20.20;;;;;;;-0.80;66.10;100876.27;107951;1256;60388;-70
2023/01/29 05:01:11;;;;;;;37.50;21.50;;;;;;;-0.79;66.11;100875.10;107829;1257;71960;-71
2023/01/29 05:03:38;;;;;;;40.20;23.10;;;;;;;-0.78;65.96;100871.67;108025;1254;72318;-70
2023/01/29 05:06:05;;;;;;;35.40;22.10;;;;;;;-0.77;65.81;100872.55;107947;1258;71751;-70
2023/01/29 05:08:33;;;;;;;36.20;21.60;;;;;;;-0.78;65.87;100871.91;108015;1259;60456;-70
2023/01/29 05:11:00;;;;;;;34.40;21.30;;;;;;;-0.78;65.88;100871.11;107662;1262;59512;-70
2023/01/29 05:13:28;;;;;;;39.20;21.90;;;;;;;-0.75;65.90;100871.96;108846;1257;73469;-70
2023/01/29 05:15:59;;;;;;;35.80;21.80;;;;;;;-0.72;65.78;100874.25;108529;1254;72712;-70
2023/01/29 05:18:26;;;;;;;39.20;22.20;;;;;;;-0.71;65.74;100877.12;107965;1254;70620;-70
2023/01/29 05:20:53;;;;;;;42.10;23.10;;;;;;;-0.71;65.87;100881.72;107886;1254;60611;-70
2023/01/29 05:23:20;;;;;;;39.40;21.80;;;;;;;-0.69;65.87;100884.13;107951;1260;59638;-70
2023/01/29 05:25:48;;;;;;;40.30;22.50;;;;;;;-0.66;65.69;100884.58;108034;1254;73714;-71
2023/01/29 05:28:16;;;;;;;39.50;22.20;;;;;;;-0.64;65.79;100883.94;108048;1254;71907;-71
2023/01/29 05:30:43;;;;;;;39.10;22.80;;;;;;;-0.61;65.78;100886.25;107956;1257;73925;-71
2023/01/29 05:33:15;;;;;;;40.30;22.90;;;;;;;-0.59;65.70;100882.52;107821;1255;61400;-72
2023/01/29 05:35:45;;;;;;;37.90;22.40;;;;;;;-0.54;65.63;100886.13;108942;1254;60797;-71
2023/01/29 05:38:12;;;;;;;39.40;22.30;;;;;;;-0.48;65.57;100886.05;108707;1254;72040;-71
2023/01/29 05:40:39;;;;;;;37.00;21.70;;;;;;;-0.44;65.61;100885.00;107962;1258;72386;-69
2023/01/29 05:43:14;;;;;;;38.50;23.20;;;;;;;-0.40;65.86;100888.67;107999;1257;73715;-71
2023/01/29 05:45:41;;;;;;;39.40;22.60;;;;;;;-0.34;65.55;100892.04;108011;1254;59287;-71
2023/01/29 05:48:08;;;;;;;37.60;23.10;;;;;;;-0.30;65.70;100889.20;107962;1254;60851;-71
2023/01/29 05:50:35;;;;;;;38.50;22.60;;;;;;;-0.25;65.69;100887.95;107912;1254;72530;-71
2023/01/29 05:53:01;;;;;;;37.90;21.60;;;;;;;-0.19;65.72;100888.84;107941;1254;73043;-72
2023/01/29 05:55:28;;;;;;;39.60;23.30;;;;;;;-0.12;65.65;100888.95;108135;1254;72772;-71
2023/01/29 05:57:58;;;;;;;41.00;22.70;;;;;;;-0.04;65.78;100888.17;108936;1256;59950;-70
2023/01/29 06:00:25;;;;;;;36.50;21.90;;;;;;;0.00;65.67;100881.92;108009;1258;60448;-70
2023/01/29 06:02:52;;;;;;;40.90;23.00;;;;;;;0.02;65.43;100886.77;107973;1254;72486;-70
2023/01/29 06:05:19;;;;;;;36.40;22.80;;;;;;;0.05;65.61;100884.28;108045;1254;73989;-70
2023/01/29 06:07:47;;;;;;;39.60;22.70;;;;;;;0.11;65.49;100881.65;108139;1257;72975;-71
2023/01/29 06:10:20;;;;;;;36.30;21.80;;;;;;;0.13;65.21;100879.12;108078;1257;61849;-71
2023/01/29 06:12:47;;;;;;;38.10;22.10;;;;;;;0.11;65.03;100880.60;107986;1254;59643;-72
2023/01/29 06:15:14;;;;;;;41.90;23.70;;;;;;;0.10;65.02;100884.46;108033;1254;73818;-72
2023/01/29 06:17:44;;;;;;;34.10;20.40;;;;;;;0.11;65.00;100880.64;108225;1254;72433;-73
2023/01/29 06:20:12;;;;;;;39.70;22.20;;;;;;;0.14;65.17;100887.27;108163;1253;72717;-73
2023/01/29 06:22:39;;;;;;;39.30;22.30;;;;;;;0.15;64.83;100880.79;108192;1254;60528;-70
2023/01/29 06:25:09;;;;;;;39.00;21.50;;;;;;;0.16;64.77;100884.71;108069;1253;59615;-71
2023/01/29 06:27:38;;;;;;;37.00;21.90;;;;;;;0.18;64.86;100886.61;107918;1254;74164;-71
2023/01/29 06:30:09;;;;;;;37.40;22.20;;;;;;;0.19;64.87;100889.13;108256;1254;73034;-71
2023/01/29 06:32:35;;;;;;;36.80;21.00;;;;;;;0.19;64.93;100887.33;108209;1254;72315;-72
2023/01/29 06:35:08;;;;;;;35.80;21.20;;;;;;;0.18;64.77;100887.54;108197;1254;60198;-72
2023/01/29 06:37:39;;;;;;;35.00;21.00;;;;;;;0.17;64.81;100885.02;108183;1254;61270;-71
2023/01/29 06:40:10;;;;;;;41.20;24.10;;;;;;;0.14;64.84;100886.02;108261;1253;72489;-74
2023/01/29 06:42:37;;;;;;;35.30;20.40;;;;;;;0.09;64.97;100884.86;108327;1254;72531;-72
2023/01/29 06:45:05;;;;;;;36.20;21.40;;;;;;;-0.15;65.43;100885.62;108248;1254;72905;-71
2023/01/29 06:47:32;;;;;;;33.90;20.60;;;;;;;-0.67;66.99;100887.08;108203;1254;62085;-71
2023/01/29 06:50:00;;;;;;;37.90;21.40;;;;;;;-0.73;67.47;100886.24;108335;1254;60237;-71
2023/01/29 06:52:27;;;;;;;38.30;20.60;;;;;;;-0.70;68.00;100889.63;108331;1253;74053;-71
2023/01/29 06:54:55;;;;;;;35.50;20.40;;;;;;;-0.58;68.03;100886.91;108277;1254;71854;-72
2023/01/29 06:57:22;;;;;;;34.20;19.70;;;;;;;0.14;66.90;100878.34;108233;1257;73877;-71
2023/01/29 06:59:49;;;;;;;34.60;19.40;;;;;;;0.40;66.42;100879.64;108264;1254;59663;-71
2023/01/29 07:02:16;;;;;;;34.00;20.60;;;;;;;0.52;66.16;100880.91;108276;1253;61180;-71
2023/01/29 07:04:43;;;;;;;34.80;20.80;;;;;;;0.62;65.89;100880.50;108174;1254;73327;-73
2023/01/29 07:07:14;;;;;;;35.80;21.10;;;;;;;0.67;65.90;100879.60;108220;1256;72912;-73
2023/01/29 07:09:42;;;;;;;35.20;20.90;;;;;;;0.75;65.77;100882.69;108178;1254;72974;-70
2023/01/29 07:12:09;;;;;;;34.20;20.20;;;;;;;0.84;65.79;100888.35;108221;1254;61273;-71
2023/01/29 07:14:37;;;;;;;34.70;21.30;;;;;;;0.94;65.60;100886.35;108159;1253;61392;-71
2023/01/29 07:17:07;;;;;;;36.40;21.00;;;;;;;1.01;65.63;100884.59;108288;1257;72229;-72
2023/01/29 07:19:34;;;;;;;34.50;20.00;;;;;;;1.09;65.55;100876.96;108220;1253;70654;-72
2023/01/29 07:22:02;;;;;;;34.80;19.00;;;;;;;1.14;65.22;100875.43;108257;1254;73007;-70
2023/01/29 07:24:33;;;;;;;34.00;19.20;;;;;;;1.16;64.92;100877.33;108245;1253;61400;-71
2023/01/29 07:27:00;;;;;;;34.60;20.00;;;;;;;1.16;64.84;100876.10;108331;1253;60648;-71
2023/01/29 07:29:27;;;;;;;34.00;19.40;;;;;;;1.22;64.89;100880.36;108300;1254;72818;-70
2023/01/29 07:31:54;;;;;;;34.60;19.70;;;;;;;1.28;64.96;100877.96;108303;1253;71383;-71
2023/01/29 07:34:24;;;;;;;37.90;19.90;;;;;;;1.31;64.77;100872.16;108291;1254;71689;-71
2023/01/29 07:36:55;;;;;;;36.90;19.80;;;;;;;1.33;64.68;100871.17;108218;1254;60016;-70
2023/01/29 07:39:22;;;;;;;34.60;20.30;;;;;;;1.37;64.72;100869.63;108280;1254;60192;-72
2023/01/29 07:41:49;;;;;;;34.40;20.20;;;;;;;1.42;64.72;100873.47;108247;1254;74335;-72
2023/01/29 07:44:16;;;;;;;33.40;19.60;;;;;;;1.50;64.59;100878.05;108080;1254;72602;-72
2023/01/29 07:46:43;;;;;;;35.90;20.10;;;;;;;1.58;64.44;100875.16;108322;1254;71848;-72
2023/01/29 07:49:11;;;;;;;37.80;21.00;;;;;;;1.63;64.26;100875.04;108372;1254;61200;-72
2023/01/29 07:51:38;;;;;;;37.20;21.40;;;;;;;1.69;64.20;100874.88;108176;1253;59616;-72
2023/01/29 07:54:04;;;;;;;33.40;18.90;;;;;;;1.76;64.27;100871.16;108285;1253;71604;-71
2023/01/29 07:56:33;;;;;;;33.20;19.80;;;;;;;1.81;64.05;100873.71;108289;1253;71845;-71
2023/01/29 07:59:00;;;;;;;35.20;19.60;;;;;;;1.83;63.63;100871.58;108192;1253;73019;-73
2023/01/29 08:01:27;;;;;;;37.30;21.70;;;;;;;1.82;63.53;100869.95;108172;1257;60366;-72
2023/01/29 08:03:54;;;;;;;38.50;22.80;;;;;;;1.87;63.54;100871.73;108287;1254;60273;-73
2023/01/29 08:06:21;;;;;;;37.00;23.00;;;;;;;1.94;63.51;100877.21;108102;1254;73360;-71
2023/01/29 08:08:48;;;;;;;36.50;21.60;;;;;;;2.00;63.48;100880.99;108215;1254;72965;-73
2023/01/29 08:11:16;;;;;;;37.40;22.50;;;;;;;2.05;63.19;100883.89;107972;1254;72824;-72
2023/01/29 08:13:45;;;;;;;37.80;22.40;;;;;;;2.11;63.18;100880.70;108126;1254;60459;-73
2023/01/29 08:16:12;;;;;;;36.10;21.60;;;;;;;2.18;63.11;100881.02;108077;1254;61251;-72
2023/01/29 08:18:42;;;;;;;33.50;18.90;;;;;;;2.23;62.97;100882.55;108221;1257;74545;-72
2023/01/29 08:21:09;;;;;;;33.60;19.00;;;;;;;2.26;62.56;100885.08;108177;1253;74014;-71
2023/01/29 08:23:39;;;;;;;30.20;18.30;;;;;;;2.29;62.42;100887.16;108167;1255;71360;-71
2023/01/29 08:26:06;;;;;;;30.40;17.30;;;;;;;2.31;62.10;100886.58;108143;1253;60483;-72
2023/01/29 08:28:34;;;;;;;34.70;19.10;;;;;;;2.31;61.88;100885.67;108096;1253;60440;-73
2023/01/29 08:31:00;;;;;;;32.30;18.30;;;;;;;2.33;61.74;100889.63;108116;1254;72973;-72
2023/01/29 08:33:29;;;;;;;30.20;18.00;;;;;;;2.36;61.71;100881.85;108198;1253;72269;-73
2023/01/29 08:36:06;;;;;;;28.60;17.10;;;;;;;2.41;61.63;100882.64;108061;1253;73888;-72
2023/01/29 08:38:34;;;;;;;28.20;17.50;;;;;;;2.46;61.26;100888.05;108126;1253;60671;-72
2023/01/29 08:41:01;;;;;;;29.90;17.40;;;;;;;2.43;61.26;100885.45;108141;1253;61401;-72
2023/01/29 08:43:30;;;;;;;31.80;18.10;;;;;;;2.41;61.24;100885.52;108198;1254;73930;-74
2023/01/29 08:45:57;;;;;;;31.30;17.90;;;;;;;2.38;61.15;100882.92;108317;1253;72529;-71
2023/01/29 08:48:24;;;;;;;30.80;18.20;;;;;;;2.37;61.21;100884.58;108164;1254;73543;-72
2023/01/29 08:50:50;;;;;;;30.10;17.10;;;;;;;2.37;61.14;100883.42;108111;1253;61400;-72
2023/01/29 08:53:23;;;;;;;31.40;18.30;;;;;;;2.36;61.29;100885.21;108128;1256;60958;-71
2023/01/29 08:55:51;;;;;;;30.40;18.20;;;;;;;2.37;61.30;100882.02;108289;1254;74799;-72
2023/01/29 08:58:18;;;;;;;34.00;20.30;;;;;;;2.34;61.36;100882.45;108163;1256;71764;-72
2023/01/29 09:00:45;;;;;;;32.80;18.50;;;;;;;2.33;61.53;100877.52;108093;1254;70287;-71
2023/01/29 09:03:12;;;;;;;32.50;19.50;;;;;;;2.34;61.59;100868.29;107954;1254;60978;-71
2023/01/29 09:05:39;;;;;;;31.60;18.80;;;;;;;2.34;61.31;100876.82;108272;1254;60886;-71
2023/01/29 09:08:07;;;;;;;30.10;17.60;;;;;;;2.32;61.41;100871.27;108175;1253;73307;-71
2023/01/29 09:10:35;;;;;;;34.90;19.40;;;;;;;2.31;61.28;100874.56;108093;1254;73768;-70
2023/01/29 09:13:02;;;;;;;31.70;18.40;;;;;;;2.26;61.24;100874.21;108150;1254;72971;-72
2023/01/29 09:15:29;;;;;;;33.80;18.70;;;;;;;2.22;61.25;100871.43;108189;1257;60325;-73
2023/01/29 09:18:02;;;;;;;31.70;18.30;;;;;;;2.19;61.40;100868.20;108228;1253;60431;-71
2023/01/29 09:20:29;;;;;;;33.20;18.50;;;;;;;2.18;61.38;100869.79;108103;1254;73523;-71
2023/01/29 09:22:57;;;;;;;31.40;18.20;;;;;;;2.19;61.55;100865.86;108107;1254;71311;-72
2023/01/29 09:25:24;;;;;;;32.00;18.70;;;;;;;2.21;61.59;100862.50;108156;1254;72391;-72
2023/01/29 09:27:53;;;;;;;32.10;18.70;;;;;;;2.24;61.78;100858.80;108115;1253;60717;-71
2023/01/29 09:30:19;;;;;;;32.60;18.50;;;;;;;2.28;61.82;100857.03;108215;1254;60312;-73
2023/01/29 09:32:46;;;;;;;32.10;18.00;;;;;;;2.33;61.98;100856.23;108191;1254;74814;-71
2023/01/29 09:35:24;;;;;;;28.60;17.80;;;;;;;2.41;61.99;100857.18;108254;1254;73887;-72
2023/01/29 09:37:51;;;;;;;31.40;18.20;;;;;;;2.46;61.74;100851.52;108196;1253;71648;-72
2023/01/29 09:40:49;;;;;;;29.80;18.70;;;;;;;2.49;61.67;100848.21;108146;1254;61201;-71
2023/01/29 09:43:18;;;;;;;32.60;18.20;;;;;;;2.56;61.59;100844.59;108233;1253;60408;-72
2023/01/29 09:46:03;;;;;;;30.80;18.00;;;;;;;2.63;61.35;100843.55;108169;1254;73858;-71
2023/01/29 09:48:32;;;;;;;32.60;18.70;;;;;;;2.66;61.20;100846.41;108135;1254;72650;-73
2023/01/29 09:51:02;;;;;;;36.80;21.40;;;;;;;2.68;61.11;100846.34;108261;1253;72948;-73
2023/01/29 09:53:39;;;;;;;34.10;20.50;;;;;;;2.68;60.90;100845.45;108190;1254;60410;-74
2023/01/29 09:56:33;;;;;;;34.50;19.30;;;;;;;2.69;61.10;100840.70;108330;1254;60582;-71
2023/01/29 09:58:59;;;;;;;34.30;18.70;;;;;;;2.75;60.98;100839.69;108104;1254;75068;-72
2023/01/29 10:01:32;;;;;;;32.10;18.60;;;;;;;2.76;60.92;100831.20;108243;1254;72343;-72
2023/01/29 10:04:26;;;;;;;31.10;19.10;;;;;;;2.80;60.87;100829.54;108182;1254;72930;-72
2023/01/29 10:07:01;;;;;;;33.70;19.20;;;;;;;2.81;60.77;100828.44;108111;1254;61012;-71
2023/01/29 10:09:58;;;;;;;32.30;18.40;;;;;;;2.84;60.86;100826.21;108861;1253;60268;-71
2023/01/29 10:12:27;;;;;;;33.60;19.00;;;;;;;2.92;60.90;100821.77;108112;1254;74631;-72
2023/01/29 10:15:01;;;;;;;31.60;18.20;;;;;;;3.02;60.83;100815.20;108090;1254;73513;-71
2023/01/29 10:17:49;;;;;;;31.30;17.10;;;;;;;3.14;60.71;100815.63;108113;1254;71716;-71
2023/01/29 10:20:41;;;;;;;29.60;17.90;;;;;;;3.19;60.36;100811.38;108180;1253;60286;-72
2023/01/29 10:23:26;;;;;;;30.50;18.80;;;;;;;3.21;60.34;100808.13;108324;1254;60470;-71
2023/01/29 10:25:56;;;;;;;29.60;18.00;;;;;;;3.24;60.30;100805.29;108305;1253;74146;-72
2023/01/29 10:28:44;;;;;;;28.40;16.90;;;;;;;3.27;60.04;100802.16;108178;1254;73921;-72
2023/01/29 10:31:14;;;;;;;29.20;17.30;;;;;;;3.31;59.81;100795.27;108163;1254;73905;-72
2023/01/29 10:33:43;;;;;;;27.80;16.60;;;;;;;3.29;59.65;100795.63;108295;1253;60437;-71
2023/01/29 10:36:43;;;;;;;28.30;16.20;;;;;;;3.27;59.54;100798.02;108242;1253;60358;-70
2023/01/29 10:39:17;;;;;;;28.20;17.70;;;;;;;3.24;59.53;100794.84;108289;1253;75041;-72
2023/01/29 10:42:46;;;;;;;30.00;17.80;;;;;;;3.24;59.69;100791.02;108301;1253;72006;-71
2023/01/29 10:45:46;;;;;;;23.90;15.10;;;;;;;3.24;59.61;100791.59;108174;1253;72148;-71
2023/01/29 10:48:33;;;;;;;28.30;17.30;;;;;;;3.10;59.49;100780.88;108241;1253;62094;-71
2023/01/29 10:51:31;;;;;;;28.80;17.10;;;;;;;3.01;59.82;100778.14;108154;1254;60343;-72
2023/01/29 10:54:19;;;;;;;26.50;16.20;;;;;;;3.01;59.98;100769.95;108136;1254;73924;-71
2023/01/29 10:57:11;;;;;;;27.60;15.70;;;;;;;3.04;60.02;100768.69;108163;1254;71605;-71
2023/01/29 10:59:50;;;;;;;23.30;13.90;;;;;;;3.07;60.01;100770.76;108240;1253;71136;-71
2023/01/29 11:02:20;;;;;;;25.60;15.50;;;;;;;3.09;60.04;100765.12;108184;1253;60421;-71
2023/01/29 11:04:47;;;;;;;22.80;14.80;;;;;;;3.09;59.85;100759.43;108112;1254;60405;-72
2023/01/29 11:07:16;;;;;;;24.20;14.20;;;;;;;3.07;59.81;100754.08;108267;1254;71642;-69
2023/01/29 11:10:07;;;;;;;21.50;13.30;;;;;;;3.06;59.81;100753.30;108335;1253;71483;-70
2023/01/29 11:12:37;;;;;;;24.10;13.00;;;;;;;3.06;59.77;100745.34;108092;1253;73631;-72
2023/01/29 11:15:27;;;;;;;25.50;14.70;;;;;;;3.08;59.76;100744.20;108105;1254;60440;-72
2023/01/29 11:18:05;;;;;;;21.50;13.40;;;;;;;3.10;59.71;100742.05;108264;1254;60369;-72
2023/01/29 11:20:32;;;;;;;20.30;13.30;;;;;;;3.09;59.73;100743.39;108079;1254;75073;-70
2023/01/29 11:22:59;;;;;;;22.50;13.40;;;;;;;3.12;59.89;100747.90;108265;1253;72993;-71
2023/01/29 11:25:28;;;;;;;14.00;9.30;;;;;;;3.19;60.03;100746.85;93029;1254;20003725;-71
2023/01/29 11:28:08;;;;;;;21.10;13.50;;;;;;;3.26;60.04;100749.61;100634;1253;10002878;-70
2023/01/29 11:30:37;;;;;;;22.50;13.80;;;;;;;3.33;59.99;100743.67;108815;1254;59398;-68
2023/01/29 11:33:25;;;;;;;23.70;14.20;;;;;;;3.40;60.07;100740.98;109246;1254;59083;-69
2023/01/29 11:35:52;;;;;;;20.70;12.10;;;;;;;3.47;59.72;100737.12;108081;1254;74481;-69
2023/01/29 11:38:26;;;;;;;19.80;12.30;;;;;;;3.50;59.48;100736.10;108074;1254;71107;-69
2023/01/29 11:41:05;;;;;;;20.80;12.60;;;;;;;3.56;59.37;100733.45;108116;1253;73597;-69
2023/01/29 11:43:35;;;;;;;21.00;12.90;;;;;;;3.61;59.14;100731.23;108027;1254;60431;-69
2023/01/29 11:46:10;;;;;;;21.30;13.40;;;;;;;3.65;58.91;100727.13;108060;1254;60633;-69
2023/01/29 11:48:46;;;;;;;18.60;11.50;;;;;;;3.69;58.68;100723.50;108080;1254;72800;-69
2023/01/29 12:02:42;;;;;;;19.90;13.00;;;;;;;3.64;57.79;100727.89;97955;1284;10001992;-75
2023/01/29 12:05:17;;;;;;;20.60;12.50;;;;;;;3.91;57.10;100724.98;106016;1268;1503834;-76
2023/01/29 12:07:50;;;;;;;19.30;12.60;;;;;;;3.88;57.25;100727.42;107239;1265;71649;-76
2023/01/29 12:10:35;;;;;;;21.00;12.70;;;;;;;3.84;56.97;100723.63;107261;1266;71496;-76
2023/01/29 12:13:10;;;;;;;19.90;12.30;;;;;;;3.81;57.02;100723.91;107290;1266;73298;-75
2023/01/29 12:15:41;;;;;;;21.20;12.80;;;;;;;3.76;57.04;100720.44;107258;1265;60754;-76
2023/01/29 12:18:15;;;;;;;19.70;13.00;;;;;;;3.75;57.20;100720.23;107268;1266;59476;-74
2023/01/29 12:20:51;;;;;;;23.00;13.50;;;;;;;3.76;57.26;100714.10;107246;1265;73117;-75
2023/01/29 12:23:28;;;;;;;19.50;13.10;;;;;;;3.77;57.28;100717.54;107249;1268;73097;-76